sensor_id;sensor_type;location;lat;lon;timestamp;P1;durP1;ratioP1;P2;durP2;ratioP2
75535;SDS011;64119;52.070;20.804;2023-02-13T00:00:59;16.10;;;6.70;;
75535;SDS011;64119;52.070;20.804;2023-02-13T00:03:27;20.90;;;7.50;;
75535;SDS011;64119;52.070;20.804;2023-02-13T00:05:55;11.70;;;6.00;;
75535;SDS011;64119;52.070;20.804;2023-02-13T00:08:22;15.00;;;6.10;;
75535;SDS011;64119;52.070;20.804;2023-02-13T00:10:50;13.60;;;6.20;;
75535;SDS011;64119;52.070;20.804;2023-02-13T00:13:18;15.60;;;6.20;;
75535;SDS011;64119;52.070;20.804;2023-02-13T00:15:53;14.80;;;6.70;;
75535;SDS011;64119;52.070;20.804;2023-02-13T00:18:22;13.80;;;6.50;;
75535;SDS011;64119;52.070;20.804;2023-02-13T00:20:57;16.10;;;6.50;;
75535;SDS011;64119;52.070;20.804;2023-02-13T00:23:25;14.80;;;6.50;;
75535;SDS011;64119;52.070;20.804;2023-02-13T00:25:53;14.50;;;7.50;;
75535;SDS011;64119;52.070;20.804;2023-02-13T00:28:21;12.10;;;6.40;;
75535;SDS011;64119;52.070;20.804;2023-02-13T00:30:49;14.70;;;6.50;;
75535;SDS011;64119;52.070;20.804;2023-02-13T00:33:17;14.90;;;6.00;;
75535;SDS011;64119;52.070;20.804;2023-02-13T00:35:45;14.60;;;7.00;;
75535;SDS011;64119;52.070;20.804;2023-02-13T00:38:13;15.10;;;7.00;;
75535;SDS011;64119;52.070;20.804;2023-02-13T00:40:40;14.10;;;6.60;;
75535;SDS011;64119;52.070;20.804;2023-02-13T00:43:08;16.20;;;7.60;;
75535;SDS011;64119;52.070;20.804;2023-02-13T00:45:36;15.90;;;6.90;;
75535;SDS011;64119;52.070;20.804;2023-02-13T00:48:03;14.40;;;5.90;;
75535;SDS011;64119;52.070;20.804;2023-02-13T00:50:31;14.50;;;6.00;;
75535;SDS011;64119;52.070;20.804;2023-02-13T00:52:59;14.30;;;7.20;;
75535;SDS011;64119;52.070;20.804;2023-02-13T00:55:27;24.30;;;10.20;;
75535;SDS011;64119;52.070;20.804;2023-02-13T00:57:54;24.90;;;9.80;;
75535;SDS011;64119;52.070;20.804;2023-02-13T01:00:22;21.10;;;8.50;;
75535;SDS011;64119;52.070;20.804;2023-02-13T01:02:50;20.30;;;8.10;;
75535;SDS011;64119;52.070;20.804;2023-02-13T01:05:18;14.40;;;6.60;;
75535;SDS011;64119;52.070;20.804;2023-02-13T01:07:48;15.90;;;7.50;;
75535;SDS011;64119;52.070;20.804;2023-02-13T01:10:16;14.40;;;6.80;;
75535;SDS011;64119;52.070;20.804;2023-02-13T01:12:44;16.80;;;8.30;;
75535;SDS011;64119;52.070;20.804;2023-02-13T01:15:12;16.90;;;6.60;;
75535;SDS011;64119;52.070;20.804;2023-02-13T01:17:40;10.50;;;6.00;;
75535;SDS011;64119;52.070;20.804;2023-02-13T01:20:08;10.70;;;4.70;;
75535;SDS011;64119;52.070;20.804;2023-02-13T01:22:38;15.10;;;7.20;;
75535;SDS011;64119;52.070;20.804;2023-02-13T01:25:07;11.70;;;5.90;;
75535;SDS011;64119;52.070;20.804;2023-02-13T01:27:35;13.30;;;6.60;;
75535;SDS011;64119;52.070;20.804;2023-02-13T01:30:05;14.20;;;6.10;;
75535;SDS011;64119;52.070;20.804;2023-02-13T01:32:40;13.90;;;6.40;;
75535;SDS011;64119;52.070;20.804;2023-02-13T01:35:11;13.80;;;6.60;;
75535;SDS011;64119;52.070;20.804;2023-02-13T01:37:40;12.60;;;6.30;;
75535;SDS011;64119;52.070;20.804;2023-02-13T01:40:12;13.30;;;6.00;;
75535;SDS011;64119;52.070;20.804;2023-02-13T01:42:41;13.30;;;6.50;;
75535;SDS011;64119;52.070;20.804;2023-02-13T01:47:52;11.80;;;5.40;;
75535;SDS011;64119;52.070;20.804;2023-02-13T01:53:11;9.90;;;5.20;;
75535;SDS011;64119;52.070;20.804;2023-02-13T01:55:45;11.40;;;5.30;;
75535;SDS011;64119;52.070;20.804;2023-02-13T01:58:21;13.20;;;5.90;;
75535;SDS011;64119;52.070;20.804;2023-02-13T02:00:53;14.30;;;6.40;;
75535;SDS011;64119;52.070;20.804;2023-02-13T02:03:32;10.60;;;4.80;;
75535;SDS011;64119;52.070;20.804;2023-02-13T02:06:05;9.80;;;5.40;;
75535;SDS011;64119;52.070;20.804;2023-02-13T02:08:37;13.50;;;6.20;;
75535;SDS011;64119;52.070;20.804;2023-02-13T02:11:07;12.10;;;5.00;;
75535;SDS011;64119;52.070;20.804;2023-02-13T02:13:44;11.70;;;5.40;;
75535;SDS011;64119;52.070;20.804;2023-02-13T02:16:12;11.60;;;5.20;;
75535;SDS011;64119;52.070;20.804;2023-02-13T02:18:40;11.50;;;4.70;;
75535;SDS011;64119;52.070;20.804;2023-02-13T02:23:49;9.60;;;5.10;;
75535;SDS011;64119;52.070;20.804;2023-02-13T02:32:20;10.50;;;5.00;;
75535;SDS011;64119;52.070;20.804;2023-02-13T02:37:29;13.40;;;5.60;;
75535;SDS011;64119;52.070;20.804;2023-02-13T02:57:02;13.90;;;6.50;;
75535;SDS011;64119;52.070;20.804;2023-02-13T02:59:37;11.40;;;4.80;;
75535;SDS011;64119;52.070;20.804;2023-02-13T03:02:27;8.20;;;4.10;;
75535;SDS011;64119;52.070;20.804;2023-02-13T03:05:18;9.30;;;4.10;;
75535;SDS011;64119;52.070;20.804;2023-02-13T03:08:07;11.60;;;5.10;;
75535;SDS011;64119;52.070;20.804;2023-02-13T03:10:36;10.90;;;4.70;;
75535;SDS011;64119;52.070;20.804;2023-02-13T03:16:05;12.20;;;5.10;;
75535;SDS011;64119;52.070;20.804;2023-02-13T03:18:52;10.90;;;4.60;;
75535;SDS011;64119;52.070;20.804;2023-02-13T03:21:54;9.10;;;4.50;;
75535;SDS011;64119;52.070;20.804;2023-02-13T03:47:04;8.50;;;4.40;;
75535;SDS011;64119;52.070;20.804;2023-02-13T03:49:36;10.20;;;4.40;;
75535;SDS011;64119;52.070;20.804;2023-02-13T03:52:33;11.20;;;5.30;;
75535;SDS011;64119;52.070;20.804;2023-02-13T03:55:35;12.20;;;5.10;;
75535;SDS011;64119;52.070;20.804;2023-02-13T03:58:27;10.70;;;5.70;;
75535;SDS011;64119;52.070;20.804;2023-02-13T04:01:18;11.20;;;5.40;;
75535;SDS011;64119;52.070;20.804;2023-02-13T04:04:03;9.00;;;5.10;;
75535;SDS011;64119;52.070;20.804;2023-02-13T04:07:11;11.30;;;5.30;;
75535;SDS011;64119;52.070;20.804;2023-02-13T04:10:05;9.90;;;5.10;;
75535;SDS011;64119;52.070;20.804;2023-02-13T04:12:37;13.30;;;5.20;;
75535;SDS011;64119;52.070;20.804;2023-02-13T04:15:17;11.80;;;5.90;;
75535;SDS011;64119;52.070;20.804;2023-02-13T04:17:54;9.20;;;4.60;;
75535;SDS011;64119;52.070;20.804;2023-02-13T04:20:32;11.20;;;5.30;;
75535;SDS011;64119;52.070;20.804;2023-02-13T04:23:07;10.30;;;5.20;;
75535;SDS011;64119;52.070;20.804;2023-02-13T04:25:37;13.80;;;6.40;;
75535;SDS011;64119;52.070;20.804;2023-02-13T04:28:06;11.00;;;5.30;;
75535;SDS011;64119;52.070;20.804;2023-02-13T04:30:34;9.60;;;4.10;;
75535;SDS011;64119;52.070;20.804;2023-02-13T04:33:02;9.80;;;4.70;;
75535;SDS011;64119;52.070;20.804;2023-02-13T04:35:30;9.60;;;5.90;;
75535;SDS011;64119;52.070;20.804;2023-02-13T04:37:58;11.30;;;6.00;;
75535;SDS011;64119;52.070;20.804;2023-02-13T04:40:26;10.70;;;5.50;;
75535;SDS011;64119;52.070;20.804;2023-02-13T04:42:53;11.00;;;5.60;;
75535;SDS011;64119;52.070;20.804;2023-02-13T04:45:21;16.20;;;6.10;;
75535;SDS011;64119;52.070;20.804;2023-02-13T04:47:50;7.40;;;4.20;;
75535;SDS011;64119;52.070;20.804;2023-02-13T04:52:49;12.50;;;5.20;;
75535;SDS011;64119;52.070;20.804;2023-02-13T04:55:20;9.90;;;4.60;;
75535;SDS011;64119;52.070;20.804;2023-02-13T04:57:53;14.20;;;6.00;;
75535;SDS011;64119;52.070;20.804;2023-02-13T05:00:22;11.80;;;5.50;;
75535;SDS011;64119;52.070;20.804;2023-02-13T05:02:52;7.60;;;3.30;;
75535;SDS011;64119;52.070;20.804;2023-02-13T05:05:21;7.70;;;3.50;;
75535;SDS011;64119;52.070;20.804;2023-02-13T05:07:49;13.90;;;5.90;;
75535;SDS011;64119;52.070;20.804;2023-02-13T05:10:16;13.20;;;5.30;;
75535;SDS011;64119;52.070;20.804;2023-02-13T05:12:44;8.30;;;4.80;;
75535;SDS011;64119;52.070;20.804;2023-02-13T05:15:12;10.00;;;4.40;;
75535;SDS011;64119;52.070;20.804;2023-02-13T05:17:42;14.10;;;5.80;;
75535;SDS011;64119;52.070;20.804;2023-02-13T05:20:11;10.30;;;5.10;;
75535;SDS011;64119;52.070;20.804;2023-02-13T05:28:02;9.90;;;4.40;;
75535;SDS011;64119;52.070;20.804;2023-02-13T05:30:30;7.70;;;3.80;;
75535;SDS011;64119;52.070;20.804;2023-02-13T05:32:58;7.30;;;3.40;;
75535;SDS011;64119;52.070;20.804;2023-02-13T05:35:25;7.50;;;4.60;;
75535;SDS011;64119;52.070;20.804;2023-02-13T05:37:53;14.80;;;6.40;;
75535;SDS011;64119;52.070;20.804;2023-02-13T05:40:21;10.70;;;4.60;;
75535;SDS011;64119;52.070;20.804;2023-02-13T05:42:49;11.10;;;5.60;;
75535;SDS011;64119;52.070;20.804;2023-02-13T05:45:20;6.90;;;3.10;;
75535;SDS011;64119;52.070;20.804;2023-02-13T05:47:48;11.60;;;5.30;;
75535;SDS011;64119;52.070;20.804;2023-02-13T05:50:16;9.40;;;5.00;;
75535;SDS011;64119;52.070;20.804;2023-02-13T05:52:44;9.90;;;4.60;;
75535;SDS011;64119;52.070;20.804;2023-02-13T05:55:12;9.60;;;4.50;;
75535;SDS011;64119;52.070;20.804;2023-02-13T05:57:39;12.20;;;5.10;;
75535;SDS011;64119;52.070;20.804;2023-02-13T06:00:07;11.60;;;5.40;;
75535;SDS011;64119;52.070;20.804;2023-02-13T06:02:35;12.20;;;5.30;;
75535;SDS011;64119;52.070;20.804;2023-02-13T06:05:03;12.70;;;5.40;;
75535;SDS011;64119;52.070;20.804;2023-02-13T06:07:32;11.60;;;5.60;;
75535;SDS011;64119;52.070;20.804;2023-02-13T06:10:00;13.20;;;5.50;;
75535;SDS011;64119;52.070;20.804;2023-02-13T06:12:28;10.40;;;4.20;;
75535;SDS011;64119;52.070;20.804;2023-02-13T06:14:55;10.70;;;5.20;;
75535;SDS011;64119;52.070;20.804;2023-02-13T06:17:23;9.70;;;4.60;;
75535;SDS011;64119;52.070;20.804;2023-02-13T06:19:51;13.30;;;4.80;;
75535;SDS011;64119;52.070;20.804;2023-02-13T06:22:19;9.00;;;5.00;;
75535;SDS011;64119;52.070;20.804;2023-02-13T06:24:47;9.10;;;4.70;;
75535;SDS011;64119;52.070;20.804;2023-02-13T06:27:14;12.40;;;5.00;;
75535;SDS011;64119;52.070;20.804;2023-02-13T06:29:42;12.80;;;4.30;;
75535;SDS011;64119;52.070;20.804;2023-02-13T06:32:10;9.50;;;5.30;;
75535;SDS011;64119;52.070;20.804;2023-02-13T06:34:38;10.10;;;4.90;;
75535;SDS011;64119;52.070;20.804;2023-02-13T06:37:06;11.60;;;4.60;;
75535;SDS011;64119;52.070;20.804;2023-02-13T06:39:33;9.30;;;4.40;;
75535;SDS011;64119;52.070;20.804;2023-02-13T06:42:01;8.20;;;3.80;;
75535;SDS011;64119;52.070;20.804;2023-02-13T06:44:29;6.90;;;3.50;;
75535;SDS011;64119;52.070;20.804;2023-02-13T06:46:57;8.70;;;4.30;;
75535;SDS011;64119;52.070;20.804;2023-02-13T06:49:24;8.90;;;4.40;;
75535;SDS011;64119;52.070;20.804;2023-02-13T06:51:52;9.50;;;4.40;;
75535;SDS011;64119;52.070;20.804;2023-02-13T06:54:20;6.70;;;3.20;;
75535;SDS011;64119;52.070;20.804;2023-02-13T06:57:00;8.10;;;3.30;;
75535;SDS011;64119;52.070;20.804;2023-02-13T06:59:28;8.70;;;3.70;;
75535;SDS011;64119;52.070;20.804;2023-02-13T07:01:55;9.60;;;4.00;;
75535;SDS011;64119;52.070;20.804;2023-02-13T07:04:23;7.90;;;3.90;;
75535;SDS011;64119;52.070;20.804;2023-02-13T07:06:53;5.90;;;2.90;;
75535;SDS011;64119;52.070;20.804;2023-02-13T07:09:22;6.20;;;3.50;;
75535;SDS011;64119;52.070;20.804;2023-02-13T07:11:50;9.30;;;4.20;;
75535;SDS011;64119;52.070;20.804;2023-02-13T07:14:18;7.30;;;3.40;;
75535;SDS011;64119;52.070;20.804;2023-02-13T07:16:46;6.50;;;2.40;;
75535;SDS011;64119;52.070;20.804;2023-02-13T07:19:14;7.30;;;3.10;;
75535;SDS011;64119;52.070;20.804;2023-02-13T07:21:42;9.50;;;3.80;;
75535;SDS011;64119;52.070;20.804;2023-02-13T07:24:10;5.30;;;2.70;;
75535;SDS011;64119;52.070;20.804;2023-02-13T07:26:37;8.80;;;4.30;;
75535;SDS011;64119;52.070;20.804;2023-02-13T07:29:05;10.30;;;4.50;;
75535;SDS011;64119;52.070;20.804;2023-02-13T07:31:38;8.40;;;3.40;;
75535;SDS011;64119;52.070;20.804;2023-02-13T07:34:06;8.70;;;3.40;;
75535;SDS011;64119;52.070;20.804;2023-02-13T07:36:34;7.40;;;3.80;;
75535;SDS011;64119;52.070;20.804;2023-02-13T07:39:02;8.80;;;3.80;;
75535;SDS011;64119;52.070;20.804;2023-02-13T07:41:30;8.90;;;3.70;;
75535;SDS011;64119;52.070;20.804;2023-02-13T07:43:58;9.60;;;5.00;;
75535;SDS011;64119;52.070;20.804;2023-02-13T07:46:26;8.70;;;4.00;;
75535;SDS011;64119;52.070;20.804;2023-02-13T07:48:54;6.60;;;2.80;;
75535;SDS011;64119;52.070;20.804;2023-02-13T07:51:22;7.60;;;3.70;;
75535;SDS011;64119;52.070;20.804;2023-02-13T07:53:55;7.90;;;3.90;;
75535;SDS011;64119;52.070;20.804;2023-02-13T07:56:24;11.00;;;4.70;;
75535;SDS011;64119;52.070;20.804;2023-02-13T07:58:51;7.90;;;3.90;;
75535;SDS011;64119;52.070;20.804;2023-02-13T08:01:19;8.10;;;4.00;;
75535;SDS011;64119;52.070;20.804;2023-02-13T08:03:48;6.60;;;3.50;;
75535;SDS011;64119;52.070;20.804;2023-02-13T08:06:20;5.40;;;2.50;;
75535;SDS011;64119;52.070;20.804;2023-02-13T08:08:49;7.50;;;3.80;;
75535;SDS011;64119;52.070;20.804;2023-02-13T08:11:37;7.90;;;3.40;;
75535;SDS011;64119;52.070;20.804;2023-02-13T08:14:31;6.80;;;3.20;;
75535;SDS011;64119;52.070;20.804;2023-02-13T08:16:59;8.50;;;3.90;;
75535;SDS011;64119;52.070;20.804;2023-02-13T08:19:28;6.30;;;3.40;;
75535;SDS011;64119;52.070;20.804;2023-02-13T08:21:56;6.40;;;3.60;;
75535;SDS011;64119;52.070;20.804;2023-02-13T08:24:24;7.00;;;3.70;;
75535;SDS011;64119;52.070;20.804;2023-02-13T08:26:52;8.00;;;3.40;;
75535;SDS011;64119;52.070;20.804;2023-02-13T08:29:19;6.60;;;3.40;;
75535;SDS011;64119;52.070;20.804;2023-02-13T08:31:47;5.10;;;2.40;;
75535;SDS011;64119;52.070;20.804;2023-02-13T08:34:15;7.20;;;3.50;;
75535;SDS011;64119;52.070;20.804;2023-02-13T08:36:43;7.90;;;3.90;;
75535;SDS011;64119;52.070;20.804;2023-02-13T08:39:11;6.70;;;3.30;;
75535;SDS011;64119;52.070;20.804;2023-02-13T08:41:38;6.40;;;3.10;;
75535;SDS011;64119;52.070;20.804;2023-02-13T08:44:06;7.20;;;3.40;;
75535;SDS011;64119;52.070;20.804;2023-02-13T08:46:34;6.40;;;2.60;;
75535;SDS011;64119;52.070;20.804;2023-02-13T08:49:02;5.70;;;2.30;;
75535;SDS011;64119;52.070;20.804;2023-02-13T08:51:30;5.80;;;2.90;;
75535;SDS011;64119;52.070;20.804;2023-02-13T08:53:58;4.70;;;2.20;;
75535;SDS011;64119;52.070;20.804;2023-02-13T08:56:25;6.80;;;3.70;;
75535;SDS011;64119;52.070;20.804;2023-02-13T08:58:53;4.10;;;2.00;;
75535;SDS011;64119;52.070;20.804;2023-02-13T09:01:21;5.40;;;2.60;;
75535;SDS011;64119;52.070;20.804;2023-02-13T09:03:50;5.50;;;3.20;;
75535;SDS011;64119;52.070;20.804;2023-02-13T09:06:18;5.40;;;2.90;;
75535;SDS011;64119;52.070;20.804;2023-02-13T09:08:46;5.40;;;3.20;;
75535;SDS011;64119;52.070;20.804;2023-02-13T09:11:14;5.10;;;2.70;;
75535;SDS011;64119;52.070;20.804;2023-02-13T09:13:42;5.20;;;3.10;;
75535;SDS011;64119;52.070;20.804;2023-02-13T09:16:10;5.00;;;3.00;;
75535;SDS011;64119;52.070;20.804;2023-02-13T09:18:38;6.70;;;3.80;;
75535;SDS011;64119;52.070;20.804;2023-02-13T09:21:07;5.50;;;3.30;;
75535;SDS011;64119;52.070;20.804;2023-02-13T09:23:37;4.30;;;2.60;;
75535;SDS011;64119;52.070;20.804;2023-02-13T09:26:08;7.30;;;3.60;;
75535;SDS011;64119;52.070;20.804;2023-02-13T09:28:38;5.20;;;2.50;;
75535;SDS011;64119;52.070;20.804;2023-02-13T09:31:08;5.00;;;3.00;;
75535;SDS011;64119;52.070;20.804;2023-02-13T09:33:37;7.50;;;2.90;;
75535;SDS011;64119;52.070;20.804;2023-02-13T09:36:06;8.90;;;3.80;;
75535;SDS011;64119;52.070;20.804;2023-02-13T09:38:36;5.60;;;4.30;;
75535;SDS011;64119;52.070;20.804;2023-02-13T09:41:11;7.20;;;4.20;;
75535;SDS011;64119;52.070;20.804;2023-02-13T09:46:17;8.20;;;4.50;;
75535;SDS011;64119;52.070;20.804;2023-02-13T09:48:50;5.10;;;3.40;;
75535;SDS011;64119;52.070;20.804;2023-02-13T09:51:22;5.90;;;3.60;;
75535;SDS011;64119;52.070;20.804;2023-02-13T09:53:53;6.00;;;2.80;;
75535;SDS011;64119;52.070;20.804;2023-02-13T09:58:59;6.00;;;3.80;;
75535;SDS011;64119;52.070;20.804;2023-02-13T10:01:34;8.20;;;4.50;;
75535;SDS011;64119;52.070;20.804;2023-02-13T10:07:21;9.30;;;4.30;;
75535;SDS011;64119;52.070;20.804;2023-02-13T10:15:53;6.80;;;4.50;;
75535;SDS011;64119;52.070;20.804;2023-02-13T10:18:37;8.30;;;5.20;;
75535;SDS011;64119;52.070;20.804;2023-02-13T10:21:11;8.90;;;4.60;;
75535;SDS011;64119;52.070;20.804;2023-02-13T10:23:42;6.70;;;4.60;;
75535;SDS011;64119;52.070;20.804;2023-02-13T10:26:18;7.60;;;4.10;;
75535;SDS011;64119;52.070;20.804;2023-02-13T10:29:05;10.80;;;5.70;;
75535;SDS011;64119;52.070;20.804;2023-02-13T10:32:11;5.60;;;3.10;;
75535;SDS011;64119;52.070;20.804;2023-02-13T10:34:44;7.20;;;4.30;;
75535;SDS011;64119;52.070;20.804;2023-02-13T10:39:44;6.90;;;3.70;;
75535;SDS011;64119;52.070;20.804;2023-02-13T10:42:20;6.90;;;4.00;;
75535;SDS011;64119;52.070;20.804;2023-02-13T11:01:35;5.10;;;3.20;;
75535;SDS011;64119;52.070;20.804;2023-02-13T11:04:16;6.60;;;3.90;;
75535;SDS011;64119;52.070;20.804;2023-02-13T11:06:56;6.60;;;3.70;;
75535;SDS011;64119;52.070;20.804;2023-02-13T11:09:27;6.30;;;3.90;;
75535;SDS011;64119;52.070;20.804;2023-02-13T11:11:56;6.30;;;3.40;;
75535;SDS011;64119;52.070;20.804;2023-02-13T11:14:25;7.10;;;3.30;;
75535;SDS011;64119;52.070;20.804;2023-02-13T11:17:03;8.30;;;4.00;;
75535;SDS011;64119;52.070;20.804;2023-02-13T11:19:37;8.10;;;4.30;;
75535;SDS011;64119;52.070;20.804;2023-02-13T11:22:15;9.40;;;3.60;;
75535;SDS011;64119;52.070;20.804;2023-02-13T11:24:55;8.70;;;4.60;;
75535;SDS011;64119;52.070;20.804;2023-02-13T11:27:27;6.50;;;3.50;;
75535;SDS011;64119;52.070;20.804;2023-02-13T11:30:00;6.50;;;3.70;;
75535;SDS011;64119;52.070;20.804;2023-02-13T11:32:32;7.50;;;3.70;;
75535;SDS011;64119;52.070;20.804;2023-02-13T11:38:22;5.30;;;2.40;;
75535;SDS011;64119;52.070;20.804;2023-02-13T11:41:08;4.60;;;2.70;;
75535;SDS011;64119;52.070;20.804;2023-02-13T11:46:42;5.50;;;2.50;;
75535;SDS011;64119;52.070;20.804;2023-02-13T11:49:29;6.90;;;3.60;;
75535;SDS011;64119;52.070;20.804;2023-02-13T11:52:01;7.30;;;3.60;;
75535;SDS011;64119;52.070;20.804;2023-02-13T11:54:32;6.20;;;3.30;;
75535;SDS011;64119;52.070;20.804;2023-02-13T11:59:42;4.30;;;2.40;;
75535;SDS011;64119;52.070;20.804;2023-02-13T12:04:42;6.00;;;3.60;;
75535;SDS011;64119;52.070;20.804;2023-02-13T12:10:00;4.60;;;2.90;;
75535;SDS011;64119;52.070;20.804;2023-02-13T12:12:45;5.60;;;3.10;;
75535;SDS011;64119;52.070;20.804;2023-02-13T12:15:34;3.40;;;2.00;;
75535;SDS011;64119;52.070;20.804;2023-02-13T12:20:46;5.90;;;3.00;;
75535;SDS011;64119;52.070;20.804;2023-02-13T12:39:46;4.60;;;2.50;;
75535;SDS011;64119;52.070;20.804;2023-02-13T12:45:39;6.70;;;2.50;;
75535;SDS011;64119;52.070;20.804;2023-02-13T12:48:22;4.20;;;2.50;;
75535;SDS011;64119;52.070;20.804;2023-02-13T13:05:13;6.60;;;3.00;;
75535;SDS011;64119;52.070;20.804;2023-02-13T13:13:06;4.50;;;2.70;;
75535;SDS011;64119;52.070;20.804;2023-02-13T13:18:49;5.30;;;3.00;;
75535;SDS011;64119;52.070;20.804;2023-02-13T13:24:22;5.20;;;2.10;;
75535;SDS011;64119;52.070;20.804;2023-02-13T13:26:58;7.00;;;3.30;;
75535;SDS011;64119;52.070;20.804;2023-02-13T13:29:31;6.10;;;3.30;;
75535;SDS011;64119;52.070;20.804;2023-02-13T13:32:06;6.50;;;3.10;;
75535;SDS011;64119;52.070;20.804;2023-02-13T13:34:38;6.10;;;3.00;;
75535;SDS011;64119;52.070;20.804;2023-02-13T13:42:59;6.60;;;3.00;;
75535;SDS011;64119;52.070;20.804;2023-02-13T13:51:33;6.20;;;3.40;;
75535;SDS011;64119;52.070;20.804;2023-02-13T14:07:36;6.80;;;2.90;;
75535;SDS011;64119;52.070;20.804;2023-02-13T14:15:47;6.40;;;3.50;;
75535;SDS011;64119;52.070;20.804;2023-02-13T14:28:40;7.60;;;3.60;;
75535;SDS011;64119;52.070;20.804;2023-02-13T14:34:01;6.30;;;2.80;;
75535;SDS011;64119;52.070;20.804;2023-02-13T14:36:32;7.90;;;3.70;;
75535;SDS011;64119;52.070;20.804;2023-02-13T14:39:06;5.80;;;3.20;;
75535;SDS011;64119;52.070;20.804;2023-02-13T14:41:56;6.10;;;3.80;;
75535;SDS011;64119;52.070;20.804;2023-02-13T14:44:32;6.30;;;4.00;;
75535;SDS011;64119;52.070;20.804;2023-02-13T14:47:13;4.40;;;3.20;;
75535;SDS011;64119;52.070;20.804;2023-02-13T14:49:55;5.10;;;3.50;;
75535;SDS011;64119;52.070;20.804;2023-02-13T14:52:33;5.80;;;2.80;;
75535;SDS011;64119;52.070;20.804;2023-02-13T14:55:15;6.40;;;3.20;;
75535;SDS011;64119;52.070;20.804;2023-02-13T14:57:56;5.20;;;2.50;;
75535;SDS011;64119;52.070;20.804;2023-02-13T15:06:26;5.90;;;2.20;;
75535;SDS011;64119;52.070;20.804;2023-02-13T15:08:57;7.10;;;3.50;;
75535;SDS011;64119;52.070;20.804;2023-02-13T15:11:32;6.50;;;3.80;;
75535;SDS011;64119;52.070;20.804;2023-02-13T15:16:54;9.30;;;4.30;;
75535;SDS011;64119;52.070;20.804;2023-02-13T15:19:25;7.00;;;3.90;;
75535;SDS011;64119;52.070;20.804;2023-02-13T15:21:58;7.70;;;3.50;;
75535;SDS011;64119;52.070;20.804;2023-02-13T15:24:42;5.80;;;3.90;;
75535;SDS011;64119;52.070;20.804;2023-02-13T15:27:20;7.60;;;4.20;;
75535;SDS011;64119;52.070;20.804;2023-02-13T15:29:53;6.60;;;3.20;;
75535;SDS011;64119;52.070;20.804;2023-02-13T15:32:35;6.30;;;3.20;;
75535;SDS011;64119;52.070;20.804;2023-02-13T15:37:50;6.30;;;3.40;;
75535;SDS011;64119;52.070;20.804;2023-02-13T15:42:54;6.40;;;3.00;;
75535;SDS011;64119;52.070;20.804;2023-02-13T15:45:24;6.60;;;3.40;;
75535;SDS011;64119;52.070;20.804;2023-02-13T15:47:54;6.80;;;3.90;;
75535;SDS011;64119;52.070;20.804;2023-02-13T15:50:26;5.10;;;3.00;;
75535;SDS011;64119;52.070;20.804;2023-02-13T15:52:57;8.20;;;3.40;;
75535;SDS011;64119;52.070;20.804;2023-02-13T15:55:31;5.40;;;2.60;;
75535;SDS011;64119;52.070;20.804;2023-02-13T15:58:02;6.90;;;3.40;;
75535;SDS011;64119;52.070;20.804;2023-02-13T16:00:32;7.10;;;3.10;;
75535;SDS011;64119;52.070;20.804;2023-02-13T16:03:03;6.00;;;3.10;;
75535;SDS011;64119;52.070;20.804;2023-02-13T16:05:36;5.70;;;3.00;;
75535;SDS011;64119;52.070;20.804;2023-02-13T16:22:53;5.90;;;3.30;;
75535;SDS011;64119;52.070;20.804;2023-02-13T16:25:02;6.40;;;3.30;;
75535;SDS011;64119;52.070;20.804;2023-02-13T16:27:43;7.00;;;3.50;;
75535;SDS011;64119;52.070;20.804;2023-02-13T16:33:11;4.90;;;2.80;;
75535;SDS011;64119;52.070;20.804;2023-02-13T16:35:43;5.60;;;2.50;;
75535;SDS011;64119;52.070;20.804;2023-02-13T16:40:53;6.10;;;3.30;;
75535;SDS011;64119;52.070;20.804;2023-02-13T16:54:03;7.60;;;2.60;;
75535;SDS011;64119;52.070;20.804;2023-02-13T16:56:40;4.80;;;2.30;;
75535;SDS011;64119;52.070;20.804;2023-02-13T17:07:37;7.70;;;3.90;;
75535;SDS011;64119;52.070;20.804;2023-02-13T17:10:12;5.70;;;2.90;;
75535;SDS011;64119;52.070;20.804;2023-02-13T17:12:49;4.50;;;2.40;;
75535;SDS011;64119;52.070;20.804;2023-02-13T17:15:19;5.80;;;2.40;;
75535;SDS011;64119;52.070;20.804;2023-02-13T17:17:50;5.70;;;3.00;;
75535;SDS011;64119;52.070;20.804;2023-02-13T17:20:20;7.60;;;2.90;;
75535;SDS011;64119;52.070;20.804;2023-02-13T17:22:53;4.00;;;2.60;;
75535;SDS011;64119;52.070;20.804;2023-02-13T17:25:30;8.10;;;3.60;;
75535;SDS011;64119;52.070;20.804;2023-02-13T17:28:05;3.80;;;2.20;;
75535;SDS011;64119;52.070;20.804;2023-02-13T17:30:37;6.20;;;3.50;;
75535;SDS011;64119;52.070;20.804;2023-02-13T17:33:06;6.00;;;2.90;;
75535;SDS011;64119;52.070;20.804;2023-02-13T17:35:38;5.10;;;2.90;;
75535;SDS011;64119;52.070;20.804;2023-02-13T17:38:07;6.60;;;3.70;;
75535;SDS011;64119;52.070;20.804;2023-02-13T17:40:36;5.30;;;3.10;;
75535;SDS011;64119;52.070;20.804;2023-02-13T17:43:03;7.70;;;3.00;;
75535;SDS011;64119;52.070;20.804;2023-02-13T17:45:32;7.70;;;3.00;;
75535;SDS011;64119;52.070;20.804;2023-02-13T17:48:01;8.60;;;3.40;;
75535;SDS011;64119;52.070;20.804;2023-02-13T17:53:01;6.40;;;3.10;;
75535;SDS011;64119;52.070;20.804;2023-02-13T17:55:32;4.00;;;2.50;;
75535;SDS011;64119;52.070;20.804;2023-02-13T17:58:01;6.80;;;3.40;;
75535;SDS011;64119;52.070;20.804;2023-02-13T18:00:30;10.00;;;3.80;;
75535;SDS011;64119;52.070;20.804;2023-02-13T18:02:59;7.10;;;2.80;;
75535;SDS011;64119;52.070;20.804;2023-02-13T18:05:28;4.00;;;2.90;;
75535;SDS011;64119;52.070;20.804;2023-02-13T18:07:55;6.80;;;3.50;;
75535;SDS011;64119;52.070;20.804;2023-02-13T18:10:24;6.10;;;3.30;;
75535;SDS011;64119;52.070;20.804;2023-02-13T18:12:54;6.00;;;2.40;;
75535;SDS011;64119;52.070;20.804;2023-02-13T18:15:24;5.60;;;3.10;;
75535;SDS011;64119;52.070;20.804;2023-02-13T18:17:52;5.60;;;2.80;;
75535;SDS011;64119;52.070;20.804;2023-02-13T18:20:21;8.30;;;3.60;;
75535;SDS011;64119;52.070;20.804;2023-02-13T18:22:49;5.40;;;3.20;;
75535;SDS011;64119;52.070;20.804;2023-02-13T18:25:18;7.20;;;4.00;;
75535;SDS011;64119;52.070;20.804;2023-02-13T18:27:47;7.20;;;4.00;;
75535;SDS011;64119;52.070;20.804;2023-02-13T18:30:16;5.80;;;3.40;;
75535;SDS011;64119;52.070;20.804;2023-02-13T18:32:50;7.50;;;3.50;;
75535;SDS011;64119;52.070;20.804;2023-02-13T18:35:22;9.80;;;3.70;;
75535;SDS011;64119;52.070;20.804;2023-02-13T18:37:50;5.40;;;3.30;;
75535;SDS011;64119;52.070;20.804;2023-02-13T18:40:18;4.10;;;3.00;;
75535;SDS011;64119;52.070;20.804;2023-02-13T18:42:45;8.60;;;3.40;;
75535;SDS011;64119;52.070;20.804;2023-02-13T18:47:43;7.70;;;3.80;;
75535;SDS011;64119;52.070;20.804;2023-02-13T18:50:11;8.00;;;3.80;;
75535;SDS011;64119;52.070;20.804;2023-02-13T18:52:39;11.10;;;4.20;;
75535;SDS011;64119;52.070;20.804;2023-02-13T18:55:07;7.20;;;3.20;;
75535;SDS011;64119;52.070;20.804;2023-02-13T18:57:35;5.60;;;3.30;;
75535;SDS011;64119;52.070;20.804;2023-02-13T19:00:03;7.10;;;4.20;;
75535;SDS011;64119;52.070;20.804;2023-02-13T19:02:32;6.40;;;3.10;;
75535;SDS011;64119;52.070;20.804;2023-02-13T19:05:00;6.70;;;2.80;;
75535;SDS011;64119;52.070;20.804;2023-02-13T19:07:28;7.00;;;3.70;;
75535;SDS011;64119;52.070;20.804;2023-02-13T19:09:56;6.50;;;3.40;;
75535;SDS011;64119;52.070;20.804;2023-02-13T19:12:23;5.90;;;3.10;;
75535;SDS011;64119;52.070;20.804;2023-02-13T19:14:51;7.50;;;3.70;;
75535;SDS011;64119;52.070;20.804;2023-02-13T19:17:20;8.70;;;3.80;;
75535;SDS011;64119;52.070;20.804;2023-02-13T19:19:48;7.10;;;3.40;;
75535;SDS011;64119;52.070;20.804;2023-02-13T19:22:17;4.80;;;2.40;;